Time;durP1;ratioP1;P1;durP2;ratioP2;P2;SDS_P1;SDS_P2;PMS_P1;PMS_P2;Temp;Humidity;BMP_temperature;BMP_pressure;BME280_temperature;BME280_humidity;BME280_pressure;Samples;Min_cycle;Max_cycle;Signal;HPM_P1;HPM_P2
2023/09/28 00:02:52;;;;;;;6.85;1.48;;;16.00;99.90;;;;;;5037538;28;20029;-69
2023/09/28 00:05:19;;;;;;;6.10;1.60;;;16.00;99.90;;;;;;5035902;28;20018;-70
2023/09/28 00:07:46;;;;;;;8.85;1.77;;;16.00;99.90;;;;;;5037035;28;20021;-70
2023/09/28 00:10:15;;;;;;;7.63;1.60;;;16.00;99.90;;;;;;5036035;28;20108;-69
2023/09/28 00:12:51;;;;;;;7.55;1.52;;;15.90;99.90;;;;;;5037367;28;20025;-70
2023/09/28 00:15:17;;;;;;;5.60;1.17;;;15.90;99.90;;;;;;5037365;28;20037;-70
2023/09/28 00:17:44;;;;;;;7.03;1.38;;;15.90;99.90;;;;;;5037314;28;20019;-69
2023/09/28 00:20:17;;;;;;;9.40;1.70;;;15.80;99.90;;;;;;5036048;28;20018;-68
2023/09/28 00:22:51;;;;;;;;;;;15.80;99.90;;;;;;5036315;28;20029;-69
2023/09/28 00:25:17;;;;;;;5.25;1.38;;;15.80;99.90;;;;;;5037308;28;20003;-69
2023/09/28 00:27:44;;;;;;;8.02;1.70;;;15.80;99.90;;;;;;5037174;28;20064;-68
2023/09/28 00:30:18;;;;;;;9.35;1.90;;;15.70;99.90;;;;;;5036936;28;20493;-69
2023/09/28 00:32:48;;;;;;;8.20;1.60;;;15.70;99.90;;;;;;5037398;28;20017;-68
2023/09/28 00:35:14;;;;;;;6.25;1.45;;;15.70;99.90;;;;;;5037555;28;20151;-68
2023/09/28 00:37:41;;;;;;;7.63;1.90;;;15.70;99.90;;;;;;5035681;28;20470;-70
2023/09/28 00:42:51;;;;;;;8.73;1.52;;;15.60;99.90;;;;;;5037236;28;20075;-68
2023/09/28 00:45:22;;;;;;;8.13;1.77;;;15.60;99.90;;;;;;5037118;28;20022;-68
2023/09/28 00:47:55;;;;;;;7.25;1.50;;;15.60;99.90;;;;;;5036898;28;20071;-68
2023/09/28 00:50:21;;;;;;;7.63;1.52;;;15.50;99.90;;;;;;5028432;28;20140;-69
2023/09/28 00:52:54;;;;;;;11.82;1.70;;;15.60;99.90;;;;;;5035337;28;20045;-69
2023/09/28 00:55:22;;;;;;;13.55;1.77;;;15.50;99.90;;;;;;5036712;28;20013;-69
2023/09/28 00:57:48;;;;;;;6.68;1.50;;;15.50;99.90;;;;;;5036447;28;20041;-69
2023/09/28 01:00:27;;;;;;;8.05;1.65;;;15.50;99.90;;;;;;5039083;28;20022;-69
2023/09/28 01:02:55;;;;;;;10.45;1.60;;;15.50;99.90;;;;;;5041021;28;20438;-69
2023/09/28 01:05:31;;;;;;;12.05;2.03;;;15.50;99.90;;;;;;5040911;28;20032;-69
2023/09/28 01:08:06;;;;;;;7.28;1.63;;;15.40;99.90;;;;;;5039248;28;20021;-69
2023/09/28 01:10:35;;;;;;;10.80;1.50;;;15.40;99.90;;;;;;5040628;28;20076;-69
2023/09/28 01:13:07;;;;;;;10.25;1.80;;;15.40;99.90;;;;;;5040927;28;20025;-69
2023/09/28 01:15:32;;;;;;;6.07;1.30;;;15.40;99.90;;;;;;5040570;28;20113;-70
2023/09/28 01:17:58;;;;;;;6.28;1.40;;;15.30;99.90;;;;;;5040899;28;20490;-69
2023/09/28 01:20:34;;;;;;;8.70;1.65;;;15.30;99.90;;;;;;5040516;28;20091;-69
2023/09/28 01:23:01;;;;;;;10.02;1.90;;;15.30;99.90;;;;;;5040534;28;20431;-70
2023/09/28 01:25:26;;;;;;;8.55;1.60;;;15.30;99.90;;;;;;5038997;28;20036;-69
2023/09/28 01:27:52;;;;;;;7.47;1.75;;;15.20;99.90;;;;;;5039316;28;20026;-69
2023/09/28 01:30:18;;;;;;;8.98;1.67;;;15.20;99.90;;;;;;5040170;28;20034;-70
2023/09/28 01:32:44;;;;;;;6.68;1.25;;;15.20;99.90;;;;;;5040630;28;20030;-69
2023/09/28 01:35:13;;;;;;;8.65;1.45;;;15.20;99.90;;;;;;5039045;28;20022;-71
2023/09/28 01:38:05;;;;;;;9.73;1.50;;;15.20;99.90;;;;;;5040309;28;20028;-70
2023/09/28 01:40:31;;;;;;;4.35;1.30;;;15.20;99.90;;;;;;5040206;28;20397;-70
2023/09/28 01:42:57;;;;;;;10.05;2.08;;;15.10;99.90;;;;;;5040312;28;20028;-70
2023/09/28 01:45:22;;;;;;;7.85;1.58;;;15.10;99.90;;;;;;5040337;28;20482;-70
2023/09/28 01:47:48;;;;;;;5.75;1.30;;;15.10;99.90;;;;;;5040061;28;20087;-70
2023/09/28 01:50:14;;;;;;;6.78;1.30;;;15.20;99.90;;;;;;5030506;28;20462;-70
2023/09/28 01:52:39;;;;;;;7.47;1.58;;;15.20;99.90;;;;;;5039784;28;20542;-71
2023/09/28 01:55:05;;;;;;;6.68;1.20;;;15.20;99.90;;;;;;5039634;28;20024;-70
2023/09/28 01:57:33;;;;;;;9.07;1.73;;;15.20;99.90;;;;;;5039911;28;20120;-70
2023/09/28 02:00:00;;;;;;;8.35;1.55;;;15.10;99.90;;;;;;5038811;28;20504;-70
2023/09/28 02:02:26;;;;;;;8.43;2.10;;;15.10;99.90;;;;;;5039733;28;20498;-70
2023/09/28 02:04:51;;;;;;;7.88;1.70;;;15.10;99.90;;;;;;5039884;28;20500;-70
2023/09/28 02:07:18;;;;;;;7.65;1.60;;;15.10;99.90;;;;;;5039682;28;20022;-70
2023/09/28 02:09:44;;;;;;;5.55;1.38;;;15.10;99.90;;;;;;5038390;28;20036;-71
2023/09/28 02:12:10;;;;;;;5.70;1.48;;;15.10;99.90;;;;;;5037914;28;20406;-71
2023/09/28 02:14:36;;;;;;;7.03;1.60;;;15.10;99.90;;;;;;5038555;28;20026;-71
2023/09/28 02:17:02;;;;;;;7.38;1.85;;;15.10;99.90;;;;;;5039474;28;20025;-71
2023/09/28 02:19:27;;;;;;;7.90;1.35;;;15.10;99.90;;;;;;5039783;28;20022;-71
2023/09/28 02:21:53;;;;;;;5.43;1.25;;;15.10;99.90;;;;;;5039242;28;20026;-71
2023/09/28 02:24:19;;;;;;;6.47;1.42;;;15.10;99.90;;;;;;5039670;28;20068;-71
2023/09/28 02:26:44;;;;;;;5.88;1.77;;;15.10;99.90;;;;;;5039296;28;20052;-71
2023/09/28 02:29:12;;;;;;;7.18;1.60;;;15.10;99.90;;;;;;5039460;28;20030;-71
2023/09/28 02:31:41;;;;;;;6.68;1.35;;;15.10;99.90;;;;;;5037752;28;20021;-70
2023/09/28 02:34:07;;;;;;;8.23;1.60;;;15.10;99.90;;;;;;5039367;28;20029;-70
2023/09/28 02:36:33;;;;;;;10.98;2.03;;;15.10;99.90;;;;;;5039049;28;20029;-70
2023/09/28 02:38:58;;;;;;;9.45;1.65;;;15.00;99.90;;;;;;5039383;28;20044;-70
2023/09/28 02:41:24;;;;;;;6.30;1.45;;;15.00;99.90;;;;;;5038643;28;20021;-70
2023/09/28 02:43:50;;;;;;;9.32;1.70;;;14.90;99.90;;;;;;5039460;28;20381;-71
2023/09/28 02:46:15;;;;;;;7.35;1.45;;;14.90;99.90;;;;;;5037604;28;20092;-71
2023/09/28 02:48:41;;;;;;;8.00;1.58;;;14.90;99.90;;;;;;5039105;28;20029;-69
2023/09/28 02:51:10;;;;;;;6.28;1.33;;;14.90;99.90;;;;;;5038407;28;20087;-68
2023/09/28 02:53:36;;;;;;;8.52;1.75;;;14.90;99.90;;;;;;5038968;28;20500;-68
2023/09/28 02:56:03;;;;;;;6.57;1.52;;;14.90;99.90;;;;;;5038335;28;20080;-69
2023/09/28 02:58:29;;;;;;;6.72;1.40;;;14.90;99.90;;;;;;5038557;28;20069;-69
2023/09/28 03:00:56;;;;;;;10.02;1.90;;;14.90;99.90;;;;;;5038554;28;20028;-69
2023/09/28 03:03:23;;;;;;;8.60;1.33;;;14.90;99.90;;;;;;5038966;28;20390;-68
2023/09/28 03:05:54;;;;;;;6.95;1.63;;;14.90;99.90;;;;;;5038513;28;20505;-69
2023/09/28 03:08:21;;;;;;;6.68;1.65;;;14.90;99.90;;;;;;5038343;28;20056;-68
2023/09/28 03:10:47;;;;;;;6.05;1.70;;;14.90;99.90;;;;;;5037097;28;20025;-69
2023/09/28 03:13:13;;;;;;;6.65;1.48;;;14.90;99.90;;;;;;5038722;28;20452;-69
2023/09/28 03:15:41;;;;;;;6.55;1.50;;;14.80;99.90;;;;;;5038445;28;20022;-69
2023/09/28 03:18:06;;;;;;;6.15;1.50;;;14.80;99.90;;;;;;5038492;28;20017;-69
2023/09/28 03:20:32;;;;;;;5.47;1.63;;;14.80;99.90;;;;;;5038317;28;20037;-68
2023/09/28 03:22:58;;;;;;;8.70;1.65;;;14.80;99.90;;;;;;5037531;28;20029;-69
2023/09/28 03:25:24;;;;;;;10.75;1.88;;;14.80;99.90;;;;;;5038262;28;20068;-70
2023/09/28 03:27:51;;;;;;;6.28;1.58;;;14.70;99.90;;;;;;5038560;28;20112;-68
2023/09/28 03:30:18;;;;;;;6.00;1.50;;;14.70;99.90;;;;;;5037961;28;20489;-68
2023/09/28 03:32:46;;;;;;;7.72;1.67;;;14.70;99.90;;;;;;5017303;28;20052;-68
2023/09/28 03:35:12;;;;;;;7.85;1.85;;;14.70;99.90;;;;;;5033361;28;20018;-68
2023/09/28 03:37:38;;;;;;;9.32;2.10;;;14.70;99.90;;;;;;5037738;28;20056;-68
2023/09/28 03:40:11;;;;;;;7.10;1.70;;;14.70;99.90;;;;;;5036355;28;20021;-69
2023/09/28 03:42:48;;;;;;;6.15;1.58;;;14.60;99.90;;;;;;5037568;28;20104;-69
2023/09/28 03:45:22;;;;;;;5.85;1.60;;;14.60;99.90;;;;;;5036653;28;20631;-69
2023/09/28 03:47:52;;;;;;;6.43;1.48;;;14.60;99.90;;;;;;5037480;28;20112;-71
2023/09/28 03:50:22;;;;;;;8.07;1.50;;;14.60;99.90;;;;;;5036218;28;20040;-71
2023/09/28 03:52:48;;;;;;;7.57;1.70;;;14.50;99.90;;;;;;5037128;28;20029;-70
2023/09/28 03:55:15;;;;;;;5.43;1.75;;;14.50;99.90;;;;;;5040581;28;20018;-69
2023/09/28 03:57:44;;;;;;;5.32;1.30;;;14.50;99.90;;;;;;5036274;28;20042;-69
2023/09/28 04:00:14;;;;;;;7.40;1.63;;;14.50;99.90;;;;;;5037883;28;20382;-70
2023/09/28 04:02:41;;;;;;;4.05;1.17;;;14.50;99.90;;;;;;5037794;28;20028;-68
2023/09/28 04:05:07;;;;;;;7.45;1.67;;;14.50;99.90;;;;;;5037780;28;20047;-69
2023/09/28 04:07:33;;;;;;;7.35;1.40;;;14.50;99.90;;;;;;5037467;28;20100;-69
2023/09/28 04:09:59;;;;;;;7.30;1.42;;;14.50;99.90;;;;;;5037663;28;20052;-71
2023/09/28 04:12:24;;;;;;;7.10;1.75;;;14.50;99.90;;;;;;5037374;28;20033;-71
2023/09/28 04:14:50;;;;;;;7.75;1.30;;;14.50;99.90;;;;;;5037715;28;20018;-71
2023/09/28 04:17:17;;;;;;;7.70;1.55;;;14.50;99.90;;;;;;5037315;28;20029;-71
2023/09/28 04:19:43;;;;;;;7.10;1.20;;;14.50;99.90;;;;;;5037164;28;20497;-70
2023/09/28 04:22:08;;;;;;;9.82;1.75;;;14.50;99.90;;;;;;5035822;28;20052;-70
2023/09/28 04:24:34;;;;;;;7.72;1.60;;;14.50;99.90;;;;;;5037557;28;20028;-71
2023/09/28 04:27:00;;;;;;;6.38;1.52;;;14.50;99.90;;;;;;5037209;28;20025;-72
2023/09/28 04:29:26;;;;;;;6.55;1.27;;;14.50;99.90;;;;;;5037507;28;20061;-72
2023/09/28 04:31:52;;;;;;;6.97;1.50;;;14.50;99.90;;;;;;5037194;28;20524;-71
2023/09/28 04:34:18;;;;;;;7.95;1.50;;;14.60;99.90;;;;;;5037434;28;20021;-71
2023/09/28 04:36:45;;;;;;;7.18;1.60;;;14.60;99.90;;;;;;5037023;28;20018;-70
2023/09/28 04:39:11;;;;;;;5.30;1.42;;;14.70;99.90;;;;;;5037658;28;20020;-70
2023/09/28 04:41:37;;;;;;;5.78;1.40;;;14.70;99.90;;;;;;5036948;28;20033;-70
2023/09/28 04:44:05;;;;;;;7.57;1.50;;;14.80;99.90;;;;;;5037290;28;20057;-70
2023/09/28 04:46:31;;;;;;;6.35;1.60;;;14.80;99.90;;;;;;5037026;28;20524;-69
2023/09/28 04:48:57;;;;;;;7.10;1.50;;;14.80;99.90;;;;;;5035653;28;20077;-69
2023/09/28 04:51:23;;;;;;;8.57;1.70;;;14.80;99.90;;;;;;5036700;28;20045;-69
2023/09/28 04:53:48;;;;;;;7.65;1.50;;;14.80;99.90;;;;;;5037064;28;20093;-69
2023/09/28 04:56:15;;;;;;;7.45;1.67;;;14.90;99.90;;;;;;5039221;28;20121;-69
2023/09/28 04:58:41;;;;;;;7.43;1.45;;;14.90;99.90;;;;;;5036943;28;20041;-69
2023/09/28 05:01:07;;;;;;;7.38;1.52;;;14.90;99.90;;;;;;5036852;28;20060;-69
2023/09/28 05:03:33;;;;;;;7.35;1.52;;;14.90;99.90;;;;;;5035847;28;20152;-69
2023/09/28 05:05:59;;;;;;;10.18;1.60;;;14.90;99.90;;;;;;5036648;28;20191;-69
2023/09/28 05:08:25;;;;;;;7.78;1.35;;;14.90;99.90;;;;;;5037114;28;20037;-69
2023/09/28 05:10:51;;;;;;;7.72;1.80;;;14.90;99.90;;;;;;5036667;28;20509;-69
2023/09/28 05:13:17;;;;;;;7.95;1.42;;;14.80;99.90;;;;;;5037010;28;20018;-69
2023/09/28 05:15:42;;;;;;;8.20;1.80;;;14.80;99.90;;;;;;5035530;28;20083;-69
2023/09/28 05:18:08;;;;;;;5.63;1.52;;;14.80;99.90;;;;;;5035711;28;20021;-69
2023/09/28 05:20:34;;;;;;;7.15;1.73;;;14.80;99.90;;;;;;5036794;28;20029;-69
2023/09/28 05:23:00;;;;;;;8.60;2.17;;;14.80;99.90;;;;;;5036262;28;20033;-69
2023/09/28 05:25:25;;;;;;;6.55;2.03;;;14.70;99.90;;;;;;5036138;28;20473;-70
2023/09/28 05:27:51;;;;;;;6.65;1.52;;;14.80;99.90;;;;;;5035590;28;20026;-70
2023/09/28 05:30:17;;;;;;;6.80;1.63;;;14.70;99.90;;;;;;5031777;28;20028;-70
2023/09/28 05:32:43;;;;;;;9.38;1.80;;;14.70;99.90;;;;;;5040814;28;20025;-69
2023/09/28 05:35:10;;;;;;;8.23;1.73;;;14.70;99.90;;;;;;5036092;28;20080;-69
2023/09/28 05:37:36;;;;;;;7.25;1.77;;;14.70;99.90;;;;;;5036161;28;20018;-69
2023/09/28 05:40:04;;;;;;;9.57;1.73;;;14.70;99.90;;;;;;5034046;28;20437;-69
2023/09/28 05:42:33;;;;;;;8.88;1.40;;;14.60;99.90;;;;;;5035469;28;20482;-69
2023/09/28 05:45:00;;;;;;;5.72;1.85;;;14.70;99.90;;;;;;5036071;28;20014;-69
2023/09/28 05:47:26;;;;;;;7.03;1.42;;;14.70;99.90;;;;;;5039499;28;20029;-68
2023/09/28 05:49:52;;;;;;;6.55;1.88;;;14.70;99.90;;;;;;5039510;28;20203;-68
2023/09/28 05:52:18;;;;;;;7.75;1.67;;;14.70;99.90;;;;;;5039022;28;20020;-69
2023/09/28 05:54:44;;;;;;;7.53;1.63;;;14.70;99.90;;;;;;5040081;28;20025;-69
2023/09/28 05:57:11;;;;;;;8.82;1.50;;;14.70;99.90;;;;;;5037273;28;20486;-69
2023/09/28 05:59:37;;;;;;;5.68;1.40;;;14.70;99.90;;;;;;5032526;28;20033;-69
2023/09/28 06:02:03;;;;;;;5.88;1.33;;;14.60;99.90;;;;;;5038755;28;20039;-68
2023/09/28 06:04:29;;;;;;;6.88;1.75;;;14.60;99.90;;;;;;5027594;28;20099;-69
2023/09/28 06:06:56;;;;;;;6.03;1.63;;;14.60;99.90;;;;;;5037308;28;20058;-69
2023/09/28 06:09:21;;;;;;;6.47;1.90;;;14.60;99.90;;;;;;5036363;28;20497;-69
2023/09/28 06:11:48;;;;;;;6.47;1.45;;;14.60;99.90;;;;;;5039379;28;20018;-70
2023/09/28 06:14:15;;;;;;;7.03;1.60;;;14.60;99.90;;;;;;5038793;28;20021;-70
2023/09/28 06:16:42;;;;;;;7.13;1.85;;;14.60;99.90;;;;;;5034269;28;20021;-69
2023/09/28 06:19:08;;;;;;;10.45;1.75;;;14.60;99.90;;;;;;5037099;28;20026;-69
2023/09/28 06:21:34;;;;;;;9.10;1.67;;;14.70;99.90;;;;;;5038871;28;20160;-70
2023/09/28 06:24:01;;;;;;;8.98;1.75;;;14.70;99.90;;;;;;5038353;28;20042;-70
2023/09/28 06:26:28;;;;;;;6.50;1.48;;;14.60;99.90;;;;;;5047711;28;20023;-70
2023/09/28 06:28:54;;;;;;;8.80;1.83;;;14.70;99.90;;;;;;5041439;28;20064;-70
2023/09/28 06:31:20;;;;;;;7.38;1.40;;;14.70;99.90;;;;;;5045131;28;20025;-68
2023/09/28 06:33:48;;;;;;;8.00;1.88;;;14.70;99.90;;;;;;5043571;28;20025;-68
2023/09/28 06:36:15;;;;;;;4.88;1.55;;;14.70;99.90;;;;;;5045680;28;20113;-70
2023/09/28 06:38:41;;;;;;;7.20;1.52;;;14.70;99.90;;;;;;5036421;28;20025;-70
2023/09/28 06:41:06;;;;;;;6.38;1.52;;;14.70;99.90;;;;;;5038068;28;20037;-71
2023/09/28 06:43:32;;;;;;;7.75;1.58;;;14.70;99.90;;;;;;5037392;28;20517;-72
2023/09/28 06:45:58;;;;;;;8.40;1.90;;;14.80;99.90;;;;;;5041333;28;20040;-71
2023/09/28 06:48:25;;;;;;;6.80;1.48;;;14.80;99.90;;;;;;5041786;28;20033;-71
2023/09/28 06:50:53;;;;;;;6.10;1.55;;;14.80;99.90;;;;;;5044992;28;20160;-70
2023/09/28 06:53:19;;;;;;;9.85;2.03;;;14.80;99.90;;;;;;5037508;28;20034;-71
2023/09/28 06:55:45;;;;;;;7.80;1.75;;;14.80;99.90;;;;;;5040349;28;20022;-71
2023/09/28 06:58:14;;;;;;;7.60;1.55;;;14.80;99.90;;;;;;5033888;28;20125;-70
2023/09/28 07:00:43;;;;;;;6.55;1.88;;;14.80;99.90;;;;;;5037117;28;20025;-69
2023/09/28 07:03:09;;;;;;;8.63;1.88;;;14.80;99.90;;;;;;5034999;28;20033;-67
2023/09/28 07:05:36;;;;;;;7.13;1.40;;;14.80;99.90;;;;;;5036125;28;20104;-67
2023/09/28 07:08:05;;;;;;;9.00;1.67;;;14.80;99.90;;;;;;5035096;28;20025;-66
2023/09/28 07:10:37;;;;;;;6.45;1.58;;;14.90;99.90;;;;;;5035240;28;20112;-67
2023/09/28 07:13:05;;;;;;;8.70;1.93;;;14.90;99.90;;;;;;5038306;28;20018;-68
2023/09/28 07:15:36;;;;;;;8.77;1.85;;;15.00;99.90;;;;;;5037523;28;20025;-66
2023/09/28 07:18:03;;;;;;;7.10;1.42;;;15.10;99.90;;;;;;5037884;28;20025;-67
2023/09/28 07:20:29;;;;;;;5.93;1.58;;;15.10;99.90;;;;;;5037968;28;20021;-66
2023/09/28 07:22:55;;;;;;;10.48;1.85;;;15.20;99.90;;;;;;5035055;28;20017;-66
2023/09/28 07:25:21;;;;;;;7.20;1.73;;;15.30;99.90;;;;;;5037700;28;20018;-66
2023/09/28 07:27:52;;;;;;;13.48;2.60;;;15.50;99.90;;;;;;5037293;28;20085;-66
2023/09/28 07:30:22;;;;;;;7.97;1.90;;;15.70;99.90;;;;;;5037040;28;20021;-66
2023/09/28 07:32:49;;;;;;;11.10;1.95;;;15.80;99.90;;;;;;5038048;28;20033;-66
2023/09/28 07:35:15;;;;;;;8.20;1.70;;;15.90;99.90;;;;;;5038112;28;20470;-66
2023/09/28 07:37:44;;;;;;;11.40;2.05;;;16.00;99.90;;;;;;5037814;28;20136;-67
2023/09/28 07:40:12;;;;;;;8.02;2.15;;;16.00;99.90;;;;;;5037446;28;20052;-66
2023/09/28 07:42:41;;;;;;;6.50;2.00;;;16.00;99.90;;;;;;5037897;28;20109;-66
2023/09/28 07:45:07;;;;;;;6.55;1.77;;;15.90;99.90;;;;;;5036594;28;20026;-68
2023/09/28 07:47:33;;;;;;;8.32;2.00;;;15.90;99.90;;;;;;5037748;28;20022;-65
2023/09/28 07:50:00;;;;;;;9.23;1.70;;;15.90;99.90;;;;;;5036194;28;20053;-64
2023/09/28 07:52:25;;;;;;;9.23;1.65;;;16.00;99.90;;;;;;5036300;28;20545;-64
2023/09/28 07:54:51;;;;;;;8.88;2.05;;;16.10;99.90;;;;;;5039764;28;20052;-65
2023/09/28 07:57:17;;;;;;;8.00;2.15;;;16.20;99.90;;;;;;5037864;28;20489;-65
2023/09/28 07:59:43;;;;;;;9.00;1.90;;;16.30;99.90;;;;;;5037646;28;20108;-65
2023/09/28 08:02:11;;;;;;;10.45;2.15;;;16.30;99.90;;;;;;5037158;28;20060;-65
2023/09/28 08:04:37;;;;;;;10.48;2.10;;;16.40;99.90;;;;;;5037467;28;20057;-65
2023/09/28 08:07:03;;;;;;;10.27;2.17;;;16.40;99.90;;;;;;5037414;28;20371;-65
2023/09/28 08:09:28;;;;;;;7.85;1.95;;;16.50;99.90;;;;;;5036816;28;20025;-65
2023/09/28 08:11:55;;;;;;;8.00;1.77;;;16.60;99.90;;;;;;5037180;28;20371;-65
2023/09/28 08:14:22;;;;;;;10.38;1.95;;;16.70;99.90;;;;;;5037631;28;20025;-65
2023/09/28 08:16:48;;;;;;;6.70;1.70;;;16.80;99.90;;;;;;5037462;28;20022;-65
2023/09/28 08:19:14;;;;;;;8.38;2.38;;;16.80;99.90;;;;;;5037373;28;20037;-65
2023/09/28 08:21:41;;;;;;;7.93;1.70;;;16.90;99.90;;;;;;5037041;28;20083;-64
2023/09/28 08:24:08;;;;;;;8.30;2.08;;;17.00;99.90;;;;;;5036936;28;20052;-65
2023/09/28 08:26:34;;;;;;;8.27;2.08;;;17.10;99.90;;;;;;5037289;28;20034;-65
2023/09/28 08:29:04;;;;;;;9.25;2.05;;;17.10;99.90;;;;;;5035418;28;20033;-65
2023/09/28 08:31:33;;;;;;;14.38;2.00;;;17.20;99.90;;;;;;5036903;28;20035;-64
2023/09/28 08:33:59;;;;;;;9.02;1.70;;;17.30;99.90;;;;;;5036935;28;20037;-65
2023/09/28 08:36:28;;;;;;;9.40;2.13;;;17.30;99.90;;;;;;5036626;28;20021;-65
2023/09/28 08:38:54;;;;;;;10.82;1.88;;;17.40;99.90;;;;;;5036891;28;20026;-64
2023/09/28 08:41:34;;;;;;;13.00;2.42;;;17.50;99.90;;;;;;5036646;28;20402;-64
2023/09/28 08:44:05;;;;;;;9.77;2.15;;;17.60;99.90;;;;;;5037127;28;20068;-64
2023/09/28 08:46:37;;;;;;;11.10;2.38;;;17.70;99.90;;;;;;5037073;28;20034;-65
2023/09/28 08:49:05;;;;;;;13.35;3.17;;;17.70;99.90;;;;;;5035775;28;20029;-65
2023/09/28 08:51:31;;;;;;;10.95;2.10;;;17.70;99.90;;;;;;5036738;28;20109;-66
2023/09/28 08:53:59;;;;;;;11.70;2.83;;;17.80;99.90;;;;;;5037018;28;20029;-65
2023/09/28 08:56:26;;;;;;;8.50;2.65;;;17.90;99.90;;;;;;5039306;28;20490;-65
2023/09/28 08:58:54;;;;;;;12.43;2.60;;;17.90;99.90;;;;;;5036599;28;20061;-65
2023/09/28 09:01:20;;;;;;;12.10;3.03;;;18.00;99.90;;;;;;5036875;28;20508;-64
2023/09/28 09:03:47;;;;;;;15.20;2.88;;;18.00;99.90;;;;;;5036972;28;20029;-65
2023/09/28 09:06:13;;;;;;;8.35;2.63;;;18.10;99.90;;;;;;5036830;28;20040;-65
2023/09/28 09:08:44;;;;;;;11.93;2.55;;;18.10;99.90;;;;;;5035626;28;20083;-65
2023/09/28 09:11:14;;;;;;;13.05;2.80;;;18.20;99.90;;;;;;5036692;28;20389;-65
2023/09/28 09:13:54;;;;;;;9.52;2.15;;;18.20;99.90;;;;;;5037045;28;20466;-65
2023/09/28 09:16:24;;;;;;;9.68;2.22;;;18.20;99.90;;;;;;5037087;28;20017;-65
2023/09/28 09:18:52;;;;;;;13.23;2.60;;;18.30;99.90;;;;;;5037022;28;20026;-65
2023/09/28 09:21:18;;;;;;;12.75;2.30;;;18.50;99.90;;;;;;5038641;28;20053;-64
2023/09/28 09:24:03;;;;;;;10.00;2.33;;;18.60;99.90;;;;;;5040627;28;20029;-64
2023/09/28 09:26:37;;;;;;;6.82;2.13;;;18.70;99.90;;;;;;5040686;28;20018;-64
2023/09/28 09:29:03;;;;;;;10.88;2.22;;;18.90;99.90;;;;;;5040696;28;20032;-64
2023/09/28 09:31:30;;;;;;;10.60;2.40;;;19.00;99.90;;;;;;5040601;28;20030;-65
2023/09/28 09:33:56;;;;;;;12.77;2.40;;;19.10;99.90;;;;;;5040478;28;20025;-65
2023/09/28 09:36:21;;;;;;;10.18;2.00;;;19.20;99.90;;;;;;5040107;28;20029;-65
2023/09/28 09:38:50;;;;;;;13.15;2.42;;;19.20;99.90;;;;;;5040183;28;20021;-65
2023/09/28 09:41:16;;;;;;;9.35;2.28;;;19.10;99.90;;;;;;5040311;28;20038;-65
2023/09/28 09:43:42;;;;;;;10.07;2.42;;;19.10;99.90;;;;;;5040371;28;20033;-65
2023/09/28 09:46:09;;;;;;;12.15;2.10;;;19.10;99.90;;;;;;5040320;28;20496;-65
2023/09/28 09:48:40;;;;;;;9.57;2.08;;;19.10;99.90;;;;;;5040156;28;20072;-65
2023/09/28 09:51:12;;;;;;;10.35;1.83;;;19.20;99.90;;;;;;5039657;28;20417;-65
2023/09/28 09:53:42;;;;;;;13.35;2.25;;;19.20;99.90;;;;;;5040334;28;20407;-65
2023/09/28 09:56:09;;;;;;;8.43;1.95;;;19.20;99.90;;;;;;5042204;28;20010;-65
2023/09/28 09:58:41;;;;;;;11.57;2.20;;;19.30;99.90;;;;;;5038290;28;20050;-65
2023/09/28 10:01:17;;;;;;;7.65;2.00;;;19.40;99.90;;;;;;5039587;28;20451;-65
2023/09/28 10:03:51;;;;;;;10.02;2.03;;;19.40;99.90;;;;;;5040037;28;20061;-65
2023/09/28 10:06:23;;;;;;;11.38;2.53;;;19.50;99.90;;;;;;5037968;28;20497;-65
2023/09/28 10:08:49;;;;;;;14.33;2.70;;;19.50;99.90;;;;;;5039580;28;20025;-65
2023/09/28 10:11:17;;;;;;;9.98;2.10;;;19.60;99.90;;;;;;5038246;28;20029;-65
2023/09/28 10:13:43;;;;;;;7.75;2.30;;;19.70;99.90;;;;;;5039087;28;20104;-66
2023/09/28 10:16:13;;;;;;;8.27;2.03;;;19.90;99.90;;;;;;5039336;28;20045;-66
2023/09/28 10:18:43;;;;;;;10.38;2.50;;;20.00;99.90;;;;;;5038603;28;20542;-67
2023/09/28 10:21:09;;;;;;;9.10;2.33;;;20.20;99.90;;;;;;5038693;28;20064;-67
2023/09/28 10:23:35;;;;;;;13.13;2.80;;;20.40;99.90;;;;;;5038778;28;20025;-68
2023/09/28 10:26:06;;;;;;;12.93;2.90;;;20.40;99.90;;;;;;5038754;28;20075;-65
2023/09/28 10:28:33;;;;;;;12.73;2.58;;;20.50;99.90;;;;;;5037421;28;20032;-68
2023/09/28 10:31:04;;;;;;;11.48;2.53;;;20.40;99.90;;;;;;5037112;28;20037;-67
2023/09/28 10:33:32;;;;;;;14.15;2.38;;;20.40;99.90;;;;;;5038509;28;20033;-68
2023/09/28 10:36:14;;;;;;;11.68;2.30;;;20.40;99.90;;;;;;5038418;28;20080;-68
2023/09/28 10:38:45;;;;;;;6.90;2.08;;;20.30;99.90;;;;;;5038668;28;20029;-67
2023/09/28 10:41:11;;;;;;;10.15;2.58;;;20.30;99.90;;;;;;5038284;28;20036;-68
2023/09/28 10:43:42;;;;;;;10.35;2.47;;;20.30;99.90;;;;;;5038516;28;20022;-68
2023/09/28 10:46:09;;;;;;;11.48;2.33;;;20.40;99.90;;;;;;5037388;28;20668;-68
2023/09/28 10:48:39;;;;;;;10.15;2.50;;;20.50;99.90;;;;;;5038868;28;20029;-68
2023/09/28 10:51:18;;;;;;;8.60;2.20;;;20.50;99.90;;;;;;5037265;28;20501;-68
2023/09/28 10:53:45;;;;;;;9.85;2.42;;;20.60;99.90;;;;;;5038991;28;20131;-68
2023/09/28 10:56:11;;;;;;;10.45;2.22;;;20.70;99.90;;;;;;5039414;28;20021;-67
2023/09/28 10:58:38;;;;;;;9.63;2.67;;;20.50;99.90;;;;;;5037904;28;20090;-67
2023/09/28 11:01:06;;;;;;;10.27;2.30;;;20.40;99.90;;;;;;5038582;28;20025;-67
2023/09/28 11:03:32;;;;;;;10.20;2.05;;;20.30;99.90;;;;;;5038539;28;20021;-66
2023/09/28 11:06:01;;;;;;;10.73;2.47;;;20.30;99.90;;;;;;5038168;28;20025;-64
2023/09/28 11:08:26;;;;;;;10.68;2.47;;;20.20;99.90;;;;;;5038253;28;20040;-64
2023/09/28 11:10:55;;;;;;;8.82;2.05;;;20.10;99.90;;;;;;5038065;28;20029;-67
2023/09/28 11:13:21;;;;;;;12.32;2.05;;;20.10;99.90;;;;;;5038209;28;20021;-67
2023/09/28 11:15:49;;;;;;;11.60;2.42;;;20.00;99.90;;;;;;5037963;28;20013;-67
2023/09/28 11:18:18;;;;;;;8.80;2.10;;;20.00;99.90;;;;;;5038120;28;20037;-67
2023/09/28 11:20:43;;;;;;;8.77;1.90;;;19.90;99.90;;;;;;5037927;28;20041;-66
2023/09/28 11:23:11;;;;;;;8.88;2.60;;;19.90;99.90;;;;;;5038365;28;20029;-67
2023/09/28 11:25:40;;;;;;;12.10;2.28;;;19.90;99.90;;;;;;5036774;28;20053;-67
2023/09/28 11:28:07;;;;;;;7.53;1.77;;;19.90;99.90;;;;;;5038385;28;20028;-66
2023/09/28 11:30:32;;;;;;;11.70;2.25;;;19.80;99.90;;;;;;5038218;28;20032;-65
2023/09/28 11:32:58;;;;;;;8.98;1.98;;;19.70;99.90;;;;;;5036801;28;20021;-66
2023/09/28 11:35:24;;;;;;;5.88;1.70;;;19.70;99.90;;;;;;5038207;28;20017;-65
2023/09/28 11:38:17;;;;;;;8.35;1.88;;;19.60;99.90;;;;;;5038142;28;20032;-66
2023/09/28 11:40:44;;;;;;;6.82;1.77;;;19.70;99.90;;;;;;5036612;28;20029;-65
2023/09/28 11:43:11;;;;;;;5.75;1.50;;;19.70;99.90;;;;;;5037572;28;20041;-66
2023/09/28 11:45:37;;;;;;;6.35;2.15;;;19.70;99.90;;;;;;5038411;28;20022;-65
2023/09/28 11:48:07;;;;;;;6.95;1.98;;;19.70;99.90;;;;;;5037971;28;20033;-66
2023/09/28 11:50:35;;;;;;;7.90;1.67;;;19.60;99.90;;;;;;5037914;28;20049;-65
2023/09/28 11:53:03;;;;;;;6.18;1.50;;;19.50;99.90;;;;;;5037754;28;20544;-65
2023/09/28 11:55:29;;;;;;;8.90;1.83;;;19.40;99.90;;;;;;5039569;28;20441;-65
2023/09/28 11:57:57;;;;;;;6.95;1.55;;;19.40;99.90;;;;;;5037771;28;20049;-66
2023/09/28 12:00:24;;;;;;;5.63;1.42;;;19.40;99.90;;;;;;5038174;28;20502;-65
2023/09/28 12:02:50;;;;;;;6.88;1.70;;;19.40;99.90;;;;;;5037831;28;20048;-66
2023/09/28 12:05:17;;;;;;;6.65;1.40;;;19.50;99.90;;;;;;5038056;28;20018;-65
2023/09/28 12:07:43;;;;;;;8.15;1.88;;;19.50;99.90;;;;;;5037344;28;20022;-66
2023/09/28 12:10:11;;;;;;;6.53;1.80;;;19.50;99.90;;;;;;5037687;28;20032;-66
2023/09/28 12:12:38;;;;;;;6.93;1.83;;;19.40;99.90;;;;;;5037474;28;20029;-65
2023/09/28 12:15:10;;;;;;;7.90;1.88;;;19.40;99.90;;;;;;5037785;28;20036;-66
2023/09/28 12:17:40;;;;;;;5.70;1.60;;;19.50;99.90;;;;;;5037721;28;20104;-66
2023/09/28 12:20:07;;;;;;;5.65;1.55;;;19.50;99.90;;;;;;5037533;28;20267;-66
2023/09/28 12:22:33;;;;;;;7.20;1.55;;;19.50;99.90;;;;;;5037318;28;20022;-66
2023/09/28 12:24:59;;;;;;;5.40;1.45;;;19.40;99.90;;;;;;5037557;28;20040;-65
2023/09/28 12:27:25;;;;;;;4.78;1.50;;;19.40;99.90;;;;;;5037356;28;20394;-66
2023/09/28 12:29:50;;;;;;;5.40;1.50;;;19.40;99.90;;;;;;5037280;28;20021;-65
2023/09/28 12:32:16;;;;;;;6.50;1.67;;;19.40;99.90;;;;;;5037182;28;20490;-65
2023/09/28 12:34:42;;;;;;;7.25;1.40;;;19.30;99.90;;;;;;5037382;28;20021;-66
2023/09/28 12:37:09;;;;;;;6.97;1.75;;;19.20;99.90;;;;;;5037207;28;20080;-65
2023/09/28 12:39:35;;;;;;;6.75;1.50;;;19.10;99.90;;;;;;5037185;28;20021;-65
2023/09/28 12:42:02;;;;;;;5.97;1.50;;;19.10;99.90;;;;;;5036798;28;20041;-65
2023/09/28 12:44:28;;;;;;;5.35;1.67;;;19.10;99.90;;;;;;5037290;28;20017;-65
2023/09/28 12:46:54;;;;;;;5.60;1.33;;;19.10;99.90;;;;;;5037239;28;20033;-66
2023/09/28 12:49:20;;;;;;;7.90;1.75;;;19.20;99.90;;;;;;5037030;28;20493;-66
2023/09/28 12:51:47;;;;;;;5.18;1.50;;;19.30;99.90;;;;;;5036831;28;20044;-66